sensor_id;sensor_type;location;lat;lon;timestamp;P1;durP1;ratioP1;P2;durP2;ratioP2
19509;SDS011;9896;42.486;26.506;2024-01-06T00:01:51;1.23;;;1.13;;
19509;SDS011;9896;42.486;26.506;2024-01-06T00:04:16;0.73;;;0.73;;
19509;SDS011;9896;42.486;26.506;2024-01-06T00:06:42;0.90;;;0.90;;
19509;SDS011;9896;42.486;26.506;2024-01-06T00:09:07;0.60;;;0.60;;
19509;SDS011;9896;42.486;26.506;2024-01-06T00:11:33;1.60;;;1.50;;
19509;SDS011;9896;42.486;26.506;2024-01-06T00:13:59;0.83;;;0.83;;
19509;SDS011;9896;42.486;26.506;2024-01-06T00:16:25;1.00;;;1.00;;
19509;SDS011;9896;42.486;26.506;2024-01-06T00:18:50;1.10;;;1.10;;
19509;SDS011;9896;42.486;26.506;2024-01-06T00:21:16;0.80;;;0.80;;
19509;SDS011;9896;42.486;26.506;2024-01-06T00:23:42;0.50;;;0.50;;
19509;SDS011;9896;42.486;26.506;2024-01-06T00:26:10;1.23;;;1.23;;
19509;SDS011;9896;42.486;26.506;2024-01-06T00:28:37;0.50;;;0.50;;
19509;SDS011;9896;42.486;26.506;2024-01-06T00:31:04;2.50;;;2.40;;
19509;SDS011;9896;42.486;26.506;2024-01-06T00:33:30;0.70;;;0.70;;
19509;SDS011;9896;42.486;26.506;2024-01-06T00:35:56;1.63;;;1.53;;
19509;SDS011;9896;42.486;26.506;2024-01-06T00:38:22;0.90;;;0.90;;
19509;SDS011;9896;42.486;26.506;2024-01-06T00:40:47;5.53;;;3.27;;
19509;SDS011;9896;42.486;26.506;2024-01-06T00:43:13;1.07;;;1.07;;
19509;SDS011;9896;42.486;26.506;2024-01-06T00:45:38;0.80;;;0.80;;
19509;SDS011;9896;42.486;26.506;2024-01-06T00:48:04;0.70;;;0.70;;
19509;SDS011;9896;42.486;26.506;2024-01-06T00:50:30;0.60;;;0.60;;
19509;SDS011;9896;42.486;26.506;2024-01-06T00:52:56;0.80;;;0.80;;
19509;SDS011;9896;42.486;26.506;2024-01-06T00:55:21;0.80;;;0.80;;
19509;SDS011;9896;42.486;26.506;2024-01-06T00:57:48;0.80;;;0.80;;
19509;SDS011;9896;42.486;26.506;2024-01-06T01:00:15;1.10;;;1.10;;
19509;SDS011;9896;42.486;26.506;2024-01-06T01:02:40;1.33;;;1.33;;
19509;SDS011;9896;42.486;26.506;2024-01-06T01:05:06;0.70;;;0.70;;
19509;SDS011;9896;42.486;26.506;2024-01-06T01:07:35;1.47;;;1.37;;
19509;SDS011;9896;42.486;26.506;2024-01-06T01:10:00;0.50;;;0.50;;
19509;SDS011;9896;42.486;26.506;2024-01-06T01:12:26;0.77;;;0.77;;
19509;SDS011;9896;42.486;26.506;2024-01-06T01:14:52;0.70;;;0.70;;
19509;SDS011;9896;42.486;26.506;2024-01-06T01:17:18;0.77;;;0.77;;
19509;SDS011;9896;42.486;26.506;2024-01-06T01:19:44;0.70;;;0.70;;
19509;SDS011;9896;42.486;26.506;2024-01-06T01:22:10;0.70;;;0.70;;
19509;SDS011;9896;42.486;26.506;2024-01-06T01:24:36;1.73;;;1.60;;
19509;SDS011;9896;42.486;26.506;2024-01-06T01:27:02;1.37;;;1.37;;
19509;SDS011;9896;42.486;26.506;2024-01-06T01:29:27;4.53;;;3.60;;
19509;SDS011;9896;42.486;26.506;2024-01-06T01:31:53;0.50;;;0.50;;
19509;SDS011;9896;42.486;26.506;2024-01-06T01:34:19;1.50;;;1.43;;
19509;SDS011;9896;42.486;26.506;2024-01-06T01:36:44;0.80;;;0.80;;
19509;SDS011;9896;42.486;26.506;2024-01-06T01:39:10;0.87;;;0.87;;
19509;SDS011;9896;42.486;26.506;2024-01-06T01:41:36;0.80;;;0.80;;
19509;SDS011;9896;42.486;26.506;2024-01-06T01:44:02;0.80;;;0.80;;
19509;SDS011;9896;42.486;26.506;2024-01-06T01:46:28;0.80;;;0.80;;
19509;SDS011;9896;42.486;26.506;2024-01-06T01:48:55;0.70;;;0.70;;
19509;SDS011;9896;42.486;26.506;2024-01-06T01:51:21;1.00;;;1.00;;
19509;SDS011;9896;42.486;26.506;2024-01-06T01:53:48;0.70;;;0.70;;
19509;SDS011;9896;42.486;26.506;2024-01-06T01:56:15;3.77;;;3.57;;
19509;SDS011;9896;42.486;26.506;2024-01-06T01:58:41;0.70;;;0.70;;
19509;SDS011;9896;42.486;26.506;2024-01-06T02:01:07;1.20;;;1.20;;
19509;SDS011;9896;42.486;26.506;2024-01-06T02:03:34;16.37;;;8.13;;
19509;SDS011;9896;42.486;26.506;2024-01-06T02:06:00;12.77;;;6.53;;
19509;SDS011;9896;42.486;26.506;2024-01-06T02:08:25;2.90;;;2.70;;
19509;SDS011;9896;42.486;26.506;2024-01-06T02:10:53;2.73;;;2.57;;
19509;SDS011;9896;42.486;26.506;2024-01-06T02:13:20;1.00;;;1.00;;
19509;SDS011;9896;42.486;26.506;2024-01-06T02:15:45;2.20;;;1.93;;
19509;SDS011;9896;42.486;26.506;2024-01-06T02:18:11;1.40;;;1.40;;
19509;SDS011;9896;42.486;26.506;2024-01-06T02:20:37;9.83;;;4.73;;
19509;SDS011;9896;42.486;26.506;2024-01-06T02:23:06;3.27;;;2.50;;
19509;SDS011;9896;42.486;26.506;2024-01-06T02:25:32;4.43;;;2.90;;
19509;SDS011;9896;42.486;26.506;2024-01-06T02:27:58;12.20;;;5.23;;
19509;SDS011;9896;42.486;26.506;2024-01-06T02:30:24;2.57;;;2.37;;
19509;SDS011;9896;42.486;26.506;2024-01-06T02:32:49;0.93;;;0.93;;
19509;SDS011;9896;42.486;26.506;2024-01-06T02:35:15;2.10;;;2.00;;
19509;SDS011;9896;42.486;26.506;2024-01-06T02:37:41;2.23;;;2.07;;
19509;SDS011;9896;42.486;26.506;2024-01-06T02:40:07;1.50;;;1.40;;
19509;SDS011;9896;42.486;26.506;2024-01-06T02:42:34;1.63;;;1.53;;
19509;SDS011;9896;42.486;26.506;2024-01-06T02:44:59;0.80;;;0.80;;
19509;SDS011;9896;42.486;26.506;2024-01-06T02:47:25;1.20;;;1.20;;
19509;SDS011;9896;42.486;26.506;2024-01-06T02:49:50;2.10;;;1.93;;
19509;SDS011;9896;42.486;26.506;2024-01-06T02:52:16;1.10;;;1.10;;
19509;SDS011;9896;42.486;26.506;2024-01-06T02:54:41;0.60;;;0.60;;
19509;SDS011;9896;42.486;26.506;2024-01-06T02:57:07;3.97;;;2.87;;
19509;SDS011;9896;42.486;26.506;2024-01-06T02:59:33;1.43;;;1.37;;
19509;SDS011;9896;42.486;26.506;2024-01-06T03:01:59;3.17;;;2.97;;
19509;SDS011;9896;42.486;26.506;2024-01-06T03:04:26;2.37;;;1.93;;
19509;SDS011;9896;42.486;26.506;2024-01-06T03:06:51;1.10;;;1.10;;
19509;SDS011;9896;42.486;26.506;2024-01-06T03:09:18;4.73;;;3.80;;
19509;SDS011;9896;42.486;26.506;2024-01-06T03:11:44;1.17;;;1.17;;
19509;SDS011;9896;42.486;26.506;2024-01-06T03:14:10;0.60;;;0.60;;
19509;SDS011;9896;42.486;26.506;2024-01-06T03:16:36;1.57;;;1.27;;
19509;SDS011;9896;42.486;26.506;2024-01-06T03:19:03;1.10;;;1.10;;
19509;SDS011;9896;42.486;26.506;2024-01-06T03:21:28;1.10;;;1.10;;
19509;SDS011;9896;42.486;26.506;2024-01-06T03:23:54;7.53;;;3.03;;
19509;SDS011;9896;42.486;26.506;2024-01-06T03:26:20;10.23;;;5.30;;
19509;SDS011;9896;42.486;26.506;2024-01-06T03:28:49;1.77;;;1.67;;
19509;SDS011;9896;42.486;26.506;2024-01-06T03:31:15;6.83;;;3.87;;
19509;SDS011;9896;42.486;26.506;2024-01-06T03:33:41;1.00;;;1.00;;
19509;SDS011;9896;42.486;26.506;2024-01-06T03:36:07;1.67;;;1.07;;
19509;SDS011;9896;42.486;26.506;2024-01-06T03:38:33;0.90;;;0.90;;
19509;SDS011;9896;42.486;26.506;2024-01-06T03:40:59;0.90;;;0.90;;
19509;SDS011;9896;42.486;26.506;2024-01-06T03:43:24;0.60;;;0.60;;
19509;SDS011;9896;42.486;26.506;2024-01-06T03:45:50;0.90;;;0.90;;
19509;SDS011;9896;42.486;26.506;2024-01-06T03:48:16;0.90;;;0.90;;
19509;SDS011;9896;42.486;26.506;2024-01-06T03:50:41;1.33;;;1.30;;
19509;SDS011;9896;42.486;26.506;2024-01-06T03:53:07;1.00;;;1.00;;
19509;SDS011;9896;42.486;26.506;2024-01-06T03:55:33;1.03;;;1.03;;
19509;SDS011;9896;42.486;26.506;2024-01-06T03:57:59;0.90;;;0.90;;
19509;SDS011;9896;42.486;26.506;2024-01-06T04:00:27;7.93;;;1.70;;
19509;SDS011;9896;42.486;26.506;2024-01-06T04:02:53;0.90;;;0.90;;
19509;SDS011;9896;42.486;26.506;2024-01-06T04:05:18;4.83;;;2.37;;
19509;SDS011;9896;42.486;26.506;2024-01-06T04:07:44;1.93;;;1.83;;
19509;SDS011;9896;42.486;26.506;2024-01-06T04:10:10;1.37;;;1.37;;
19509;SDS011;9896;42.486;26.506;2024-01-06T04:12:35;1.93;;;1.83;;
19509;SDS011;9896;42.486;26.506;2024-01-06T04:15:01;11.13;;;4.20;;
19509;SDS011;9896;42.486;26.506;2024-01-06T04:17:27;1.37;;;1.33;;
19509;SDS011;9896;42.486;26.506;2024-01-06T04:19:52;3.10;;;2.83;;
19509;SDS011;9896;42.486;26.506;2024-01-06T04:22:18;3.13;;;3.03;;
19509;SDS011;9896;42.486;26.506;2024-01-06T04:24:44;1.00;;;1.00;;
19509;SDS011;9896;42.486;26.506;2024-01-06T04:27:09;1.20;;;1.20;;
19509;SDS011;9896;42.486;26.506;2024-01-06T04:29:35;1.43;;;1.40;;
19509;SDS011;9896;42.486;26.506;2024-01-06T04:32:01;1.00;;;1.00;;
19509;SDS011;9896;42.486;26.506;2024-01-06T04:34:27;1.10;;;1.10;;
19509;SDS011;9896;42.486;26.506;2024-01-06T04:36:52;1.17;;;1.17;;
19509;SDS011;9896;42.486;26.506;2024-01-06T04:39:18;1.83;;;1.73;;
19509;SDS011;9896;42.486;26.506;2024-01-06T04:41:44;1.13;;;1.13;;
19509;SDS011;9896;42.486;26.506;2024-01-06T04:44:10;1.07;;;1.07;;
19509;SDS011;9896;42.486;26.506;2024-01-06T04:46:35;1.10;;;1.10;;
19509;SDS011;9896;42.486;26.506;2024-01-06T04:49:01;1.13;;;1.13;;
19509;SDS011;9896;42.486;26.506;2024-01-06T04:51:26;4.73;;;4.13;;
19509;SDS011;9896;42.486;26.506;2024-01-06T04:53:52;0.70;;;0.70;;
19509;SDS011;9896;42.486;26.506;2024-01-06T04:56:18;1.03;;;1.03;;
19509;SDS011;9896;42.486;26.506;2024-01-06T04:58:44;3.70;;;3.40;;
19509;SDS011;9896;42.486;26.506;2024-01-06T05:01:09;2.10;;;1.90;;
19509;SDS011;9896;42.486;26.506;2024-01-06T05:03:35;3.30;;;2.77;;
19509;SDS011;9896;42.486;26.506;2024-01-06T05:06:01;5.00;;;3.90;;
19509;SDS011;9896;42.486;26.506;2024-01-06T05:08:26;8.00;;;6.27;;
19509;SDS011;9896;42.486;26.506;2024-01-06T05:10:52;4.60;;;3.27;;
19509;SDS011;9896;42.486;26.506;2024-01-06T05:13:19;1.73;;;1.37;;
19509;SDS011;9896;42.486;26.506;2024-01-06T05:15:44;2.53;;;2.30;;
19509;SDS011;9896;42.486;26.506;2024-01-06T05:18:10;1.37;;;1.27;;
19509;SDS011;9896;42.486;26.506;2024-01-06T05:20:36;0.90;;;0.90;;
19509;SDS011;9896;42.486;26.506;2024-01-06T05:23:01;1.00;;;1.00;;
19509;SDS011;9896;42.486;26.506;2024-01-06T05:25:27;4.53;;;2.70;;
19509;SDS011;9896;42.486;26.506;2024-01-06T05:27:53;0.80;;;0.80;;
19509;SDS011;9896;42.486;26.506;2024-01-06T05:30:18;6.90;;;4.80;;
19509;SDS011;9896;42.486;26.506;2024-01-06T05:32:44;1.60;;;1.57;;
19509;SDS011;9896;42.486;26.506;2024-01-06T05:35:09;1.27;;;1.27;;
19509;SDS011;9896;42.486;26.506;2024-01-06T05:37:35;0.80;;;0.80;;
19509;SDS011;9896;42.486;26.506;2024-01-06T05:40:01;3.27;;;2.33;;
19509;SDS011;9896;42.486;26.506;2024-01-06T05:42:28;3.00;;;1.00;;
19509;SDS011;9896;42.486;26.506;2024-01-06T05:44:54;1.87;;;1.77;;
19509;SDS011;9896;42.486;26.506;2024-01-06T05:47:19;0.57;;;0.57;;
19509;SDS011;9896;42.486;26.506;2024-01-06T05:49:45;1.70;;;1.60;;
19509;SDS011;9896;42.486;26.506;2024-01-06T05:52:11;0.80;;;0.80;;
19509;SDS011;9896;42.486;26.506;2024-01-06T05:54:36;10.47;;;4.50;;
19509;SDS011;9896;42.486;26.506;2024-01-06T05:57:04;5.63;;;2.47;;
19509;SDS011;9896;42.486;26.506;2024-01-06T05:59:32;1.90;;;1.80;;
19509;SDS011;9896;42.486;26.506;2024-01-06T06:01:58;3.13;;;2.67;;
19509;SDS011;9896;42.486;26.506;2024-01-06T06:04:24;2.17;;;1.97;;
19509;SDS011;9896;42.486;26.506;2024-01-06T06:06:49;1.20;;;1.20;;
19509;SDS011;9896;42.486;26.506;2024-01-06T06:09:15;3.70;;;3.27;;
19509;SDS011;9896;42.486;26.506;2024-01-06T06:11:40;0.80;;;0.80;;
19509;SDS011;9896;42.486;26.506;2024-01-06T06:14:06;2.17;;;1.97;;
19509;SDS011;9896;42.486;26.506;2024-01-06T06:16:32;6.73;;;2.80;;
19509;SDS011;9896;42.486;26.506;2024-01-06T06:18:57;1.57;;;1.47;;
19509;SDS011;9896;42.486;26.506;2024-01-06T06:21:23;4.20;;;2.03;;
19509;SDS011;9896;42.486;26.506;2024-01-06T06:23:49;2.53;;;2.20;;
19509;SDS011;9896;42.486;26.506;2024-01-06T06:26:15;1.60;;;1.50;;
19509;SDS011;9896;42.486;26.506;2024-01-06T06:28:41;5.63;;;3.90;;
19509;SDS011;9896;42.486;26.506;2024-01-06T06:31:07;1.10;;;1.10;;
19509;SDS011;9896;42.486;26.506;2024-01-06T06:33:32;2.17;;;2.07;;
19509;SDS011;9896;42.486;26.506;2024-01-06T06:36:01;0.77;;;0.77;;
19509;SDS011;9896;42.486;26.506;2024-01-06T06:38:27;2.47;;;2.30;;
19509;SDS011;9896;42.486;26.506;2024-01-06T06:40:53;10.23;;;5.27;;
19509;SDS011;9896;42.486;26.506;2024-01-06T06:43:18;4.37;;;3.30;;
19509;SDS011;9896;42.486;26.506;2024-01-06T06:45:44;3.93;;;3.17;;
19509;SDS011;9896;42.486;26.506;2024-01-06T06:48:10;2.40;;;2.20;;
19509;SDS011;9896;42.486;26.506;2024-01-06T06:50:36;1.23;;;1.23;;
19509;SDS011;9896;42.486;26.506;2024-01-06T06:53:02;0.70;;;0.70;;
19509;SDS011;9896;42.486;26.506;2024-01-06T06:55:28;3.33;;;2.30;;
19509;SDS011;9896;42.486;26.506;2024-01-06T06:57:53;9.83;;;4.30;;
19509;SDS011;9896;42.486;26.506;2024-01-06T07:00:19;1.53;;;1.43;;
19509;SDS011;9896;42.486;26.506;2024-01-06T07:02:46;4.83;;;3.83;;
19509;SDS011;9896;42.486;26.506;2024-01-06T07:05:11;1.87;;;1.77;;
19509;SDS011;9896;42.486;26.506;2024-01-06T07:07:37;2.17;;;1.60;;
19509;SDS011;9896;42.486;26.506;2024-01-06T07:10:06;1.93;;;1.83;;
19509;SDS011;9896;42.486;26.506;2024-01-06T07:12:32;2.03;;;1.93;;
19509;SDS011;9896;42.486;26.506;2024-01-06T07:14:57;19.13;;;7.77;;
19509;SDS011;9896;42.486;26.506;2024-01-06T07:17:24;11.87;;;5.73;;
19509;SDS011;9896;42.486;26.506;2024-01-06T07:19:50;5.03;;;4.03;;
19509;SDS011;9896;42.486;26.506;2024-01-06T07:22:16;1.10;;;1.10;;
19509;SDS011;9896;42.486;26.506;2024-01-06T07:24:44;7.43;;;2.67;;
19509;SDS011;9896;42.486;26.506;2024-01-06T07:27:09;8.07;;;4.97;;
19509;SDS011;9896;42.486;26.506;2024-01-06T07:29:35;10.30;;;2.23;;
19509;SDS011;9896;42.486;26.506;2024-01-06T07:32:01;9.57;;;2.77;;
19509;SDS011;9896;42.486;26.506;2024-01-06T07:34:26;10.20;;;7.27;;
19509;SDS011;9896;42.486;26.506;2024-01-06T07:36:52;6.73;;;4.57;;
19509;SDS011;9896;42.486;26.506;2024-01-06T07:39:18;5.27;;;3.87;;
19509;SDS011;9896;42.486;26.506;2024-01-06T07:41:44;11.67;;;7.20;;
19509;SDS011;9896;42.486;26.506;2024-01-06T07:44:11;14.23;;;5.93;;
19509;SDS011;9896;42.486;26.506;2024-01-06T07:46:38;6.63;;;4.83;;
19509;SDS011;9896;42.486;26.506;2024-01-06T07:49:05;7.13;;;4.13;;
19509;SDS011;9896;42.486;26.506;2024-01-06T07:51:31;11.07;;;7.73;;
19509;SDS011;9896;42.486;26.506;2024-01-06T07:53:57;4.10;;;3.63;;
19509;SDS011;9896;42.486;26.506;2024-01-06T07:56:23;2.13;;;1.70;;
19509;SDS011;9896;42.486;26.506;2024-01-06T07:58:49;7.90;;;5.50;;
19509;SDS011;9896;42.486;26.506;2024-01-06T08:01:14;8.23;;;4.43;;
19509;SDS011;9896;42.486;26.506;2024-01-06T08:03:40;4.07;;;3.20;;
19509;SDS011;9896;42.486;26.506;2024-01-06T08:06:06;4.43;;;3.23;;
19509;SDS011;9896;42.486;26.506;2024-01-06T08:08:31;6.13;;;2.43;;
19509;SDS011;9896;42.486;26.506;2024-01-06T08:10:57;1.07;;;1.07;;
19509;SDS011;9896;42.486;26.506;2024-01-06T08:13:23;0.80;;;0.77;;
19509;SDS011;9896;42.486;26.506;2024-01-06T08:15:48;0.80;;;0.80;;
19509;SDS011;9896;42.486;26.506;2024-01-06T08:18:14;3.07;;;2.77;;
19509;SDS011;9896;42.486;26.506;2024-01-06T08:20:40;10.33;;;6.40;;
19509;SDS011;9896;42.486;26.506;2024-01-06T08:23:05;0.80;;;0.80;;
19509;SDS011;9896;42.486;26.506;2024-01-06T08:25:31;3.00;;;2.57;;
19509;SDS011;9896;42.486;26.506;2024-01-06T08:27:57;4.10;;;3.27;;
19509;SDS011;9896;42.486;26.506;2024-01-06T08:30:22;10.40;;;5.43;;
19509;SDS011;9896;42.486;26.506;2024-01-06T08:32:48;8.27;;;4.10;;
19509;SDS011;9896;42.486;26.506;2024-01-06T08:35:14;4.00;;;2.97;;
19509;SDS011;9896;42.486;26.506;2024-01-06T08:37:42;2.53;;;2.03;;
19509;SDS011;9896;42.486;26.506;2024-01-06T08:40:08;3.93;;;3.47;;
19509;SDS011;9896;42.486;26.506;2024-01-06T08:42:34;6.33;;;4.20;;
19509;SDS011;9896;42.486;26.506;2024-01-06T08:45:00;8.00;;;4.33;;
19509;SDS011;9896;42.486;26.506;2024-01-06T08:47:25;4.63;;;3.20;;
19509;SDS011;9896;42.486;26.506;2024-01-06T08:49:51;11.13;;;5.10;;
19509;SDS011;9896;42.486;26.506;2024-01-06T08:52:16;6.93;;;2.73;;
19509;SDS011;9896;42.486;26.506;2024-01-06T08:54:42;4.43;;;2.50;;
19509;SDS011;9896;42.486;26.506;2024-01-06T08:57:07;8.43;;;3.73;;
19509;SDS011;9896;42.486;26.506;2024-01-06T08:59:33;5.73;;;3.53;;
19509;SDS011;9896;42.486;26.506;2024-01-06T09:01:59;9.50;;;4.30;;
19509;SDS011;9896;42.486;26.506;2024-01-06T09:04:24;13.30;;;5.30;;
19509;SDS011;9896;42.486;26.506;2024-01-06T09:06:50;5.87;;;2.90;;
19509;SDS011;9896;42.486;26.506;2024-01-06T09:09:16;11.13;;;5.03;;
19509;SDS011;9896;42.486;26.506;2024-01-06T09:11:42;11.80;;;6.27;;
19509;SDS011;9896;42.486;26.506;2024-01-06T09:14:09;11.90;;;3.90;;
19509;SDS011;9896;42.486;26.506;2024-01-06T09:16:37;7.83;;;5.47;;
19509;SDS011;9896;42.486;26.506;2024-01-06T09:19:03;6.30;;;3.70;;
19509;SDS011;9896;42.486;26.506;2024-01-06T09:21:29;12.00;;;5.50;;
19509;SDS011;9896;42.486;26.506;2024-01-06T09:23:54;7.50;;;3.90;;
19509;SDS011;9896;42.486;26.506;2024-01-06T09:26:20;14.43;;;4.77;;
19509;SDS011;9896;42.486;26.506;2024-01-06T09:28:46;7.83;;;5.30;;
19509;SDS011;9896;42.486;26.506;2024-01-06T09:31:11;9.33;;;4.53;;
19509;SDS011;9896;42.486;26.506;2024-01-06T09:33:37;8.87;;;4.30;;
19509;SDS011;9896;42.486;26.506;2024-01-06T09:36:03;3.67;;;2.37;;
19509;SDS011;9896;42.486;26.506;2024-01-06T09:38:29;8.40;;;5.30;;
19509;SDS011;9896;42.486;26.506;2024-01-06T09:40:55;2.63;;;2.03;;
19509;SDS011;9896;42.486;26.506;2024-01-06T09:43:22;2.97;;;2.40;;
19509;SDS011;9896;42.486;26.506;2024-01-06T09:45:48;5.27;;;3.23;;
19509;SDS011;9896;42.486;26.506;2024-01-06T09:48:23;9.30;;;4.13;;
19509;SDS011;9896;42.486;26.506;2024-01-06T09:50:55;13.43;;;5.47;;
19509;SDS011;9896;42.486;26.506;2024-01-06T09:53:23;13.30;;;4.33;;
19509;SDS011;9896;42.486;26.506;2024-01-06T09:55:58;8.30;;;4.53;;
19509;SDS011;9896;42.486;26.506;2024-01-06T09:58:24;6.23;;;4.43;;
19509;SDS011;9896;42.486;26.506;2024-01-06T10:00:55;10.33;;;5.93;;
19509;SDS011;9896;42.486;26.506;2024-01-06T10:03:21;11.80;;;5.47;;
19509;SDS011;9896;42.486;26.506;2024-01-06T10:05:47;15.63;;;4.33;;
19509;SDS011;9896;42.486;26.506;2024-01-06T10:08:13;6.83;;;4.00;;
19509;SDS011;9896;42.486;26.506;2024-01-06T10:10:39;10.63;;;5.90;;
19509;SDS011;9896;42.486;26.506;2024-01-06T10:13:04;14.47;;;6.43;;
19509;SDS011;9896;42.486;26.506;2024-01-06T10:15:31;11.63;;;4.37;;
19509;SDS011;9896;42.486;26.506;2024-01-06T10:17:57;3.93;;;2.97;;
19509;SDS011;9896;42.486;26.506;2024-01-06T10:20:23;13.07;;;5.63;;
19509;SDS011;9896;42.486;26.506;2024-01-06T10:22:51;7.90;;;4.30;;
19509;SDS011;9896;42.486;26.506;2024-01-06T10:25:16;11.13;;;6.63;;
19509;SDS011;9896;42.486;26.506;2024-01-06T10:27:42;9.43;;;5.17;;
19509;SDS011;9896;42.486;26.506;2024-01-06T10:30:08;4.70;;;3.30;;
19509;SDS011;9896;42.486;26.506;2024-01-06T10:32:35;9.77;;;4.10;;
19509;SDS011;9896;42.486;26.506;2024-01-06T10:35:01;6.97;;;3.50;;
19509;SDS011;9896;42.486;26.506;2024-01-06T10:37:29;10.30;;;3.30;;
19509;SDS011;9896;42.486;26.506;2024-01-06T10:40:06;15.63;;;4.77;;
19509;SDS011;9896;42.486;26.506;2024-01-06T10:42:35;8.90;;;3.17;;
19509;SDS011;9896;42.486;26.506;2024-01-06T10:45:03;10.10;;;4.47;;
19509;SDS011;9896;42.486;26.506;2024-01-06T10:47:31;12.27;;;5.57;;
19509;SDS011;9896;42.486;26.506;2024-01-06T10:50:00;11.13;;;5.60;;
19509;SDS011;9896;42.486;26.506;2024-01-06T10:52:27;12.83;;;5.63;;
19509;SDS011;9896;42.486;26.506;2024-01-06T10:54:53;9.43;;;5.20;;
19509;SDS011;9896;42.486;26.506;2024-01-06T10:57:20;10.90;;;4.57;;
19509;SDS011;9896;42.486;26.506;2024-01-06T10:59:46;10.67;;;6.20;;
19509;SDS011;9896;42.486;26.506;2024-01-06T11:02:17;8.57;;;3.83;;
19509;SDS011;9896;42.486;26.506;2024-01-06T11:04:47;11.47;;;4.73;;
19509;SDS011;9896;42.486;26.506;2024-01-06T11:07:15;11.93;;;6.17;;
19509;SDS011;9896;42.486;26.506;2024-01-06T11:09:55;13.00;;;5.37;;
19509;SDS011;9896;42.486;26.506;2024-01-06T11:12:27;8.90;;;3.90;;
19509;SDS011;9896;42.486;26.506;2024-01-06T11:14:53;13.97;;;5.87;;
19509;SDS011;9896;42.486;26.506;2024-01-06T11:20:26;11.43;;;4.57;;
19509;SDS011;9896;42.486;26.506;2024-01-06T11:22:52;8.43;;;4.20;;
19509;SDS011;9896;42.486;26.506;2024-01-06T11:25:19;6.03;;;3.57;;
19509;SDS011;9896;42.486;26.506;2024-01-06T11:27:49;9.20;;;4.03;;
19509;SDS011;9896;42.486;26.506;2024-01-06T11:30:21;17.40;;;3.97;;
19509;SDS011;9896;42.486;26.506;2024-01-06T11:32:55;3.50;;;2.87;;
19509;SDS011;9896;42.486;26.506;2024-01-06T11:35:26;8.87;;;4.97;;
19509;SDS011;9896;42.486;26.506;2024-01-06T11:37:54;4.53;;;2.97;;
19509;SDS011;9896;42.486;26.506;2024-01-06T11:40:22;8.07;;;3.90;;
19509;SDS011;9896;42.486;26.506;2024-01-06T11:45:33;19.30;;;5.33;;
19509;SDS011;9896;42.486;26.506;2024-01-06T11:48:00;13.43;;;5.67;;
19509;SDS011;9896;42.486;26.506;2024-01-06T11:50:37;3.73;;;2.73;;
19509;SDS011;9896;42.486;26.506;2024-01-06T11:53:05;7.70;;;4.47;;
19509;SDS011;9896;42.486;26.506;2024-01-06T11:55:31;7.30;;;4.20;;
19509;SDS011;9896;42.486;26.506;2024-01-06T11:57:57;8.97;;;4.77;;
19509;SDS011;9896;42.486;26.506;2024-01-06T12:00:30;12.33;;;5.03;;
19509;SDS011;9896;42.486;26.506;2024-01-06T12:03:01;6.97;;;3.93;;
19509;SDS011;9896;42.486;26.506;2024-01-06T12:05:27;11.43;;;6.43;;
19509;SDS011;9896;42.486;26.506;2024-01-06T12:07:56;8.20;;;4.00;;
19509;SDS011;9896;42.486;26.506;2024-01-06T12:10:23;7.53;;;4.00;;
19509;SDS011;9896;42.486;26.506;2024-01-06T12:13:00;11.77;;;4.00;;
19509;SDS011;9896;42.486;26.506;2024-01-06T12:15:27;15.83;;;3.60;;
19509;SDS011;9896;42.486;26.506;2024-01-06T12:17:54;9.40;;;2.90;;
19509;SDS011;9896;42.486;26.506;2024-01-06T12:20:21;6.00;;;3.03;;
19509;SDS011;9896;42.486;26.506;2024-01-06T12:22:48;13.80;;;4.97;;
19509;SDS011;9896;42.486;26.506;2024-01-06T12:25:16;14.20;;;5.37;;
19509;SDS011;9896;42.486;26.506;2024-01-06T12:27:42;10.70;;;2.90;;
19509;SDS011;9896;42.486;26.506;2024-01-06T12:30:12;7.63;;;5.00;;
19509;SDS011;9896;42.486;26.506;2024-01-06T12:32:44;9.70;;;5.27;;
19509;SDS011;9896;42.486;26.506;2024-01-06T12:35:11;6.90;;;4.07;;
19509;SDS011;9896;42.486;26.506;2024-01-06T12:37:37;10.57;;;5.87;;
19509;SDS011;9896;42.486;26.506;2024-01-06T12:40:04;13.90;;;6.93;;
19509;SDS011;9896;42.486;26.506;2024-01-06T12:42:30;7.90;;;3.70;;
19509;SDS011;9896;42.486;26.506;2024-01-06T12:44:56;11.27;;;6.57;;
19509;SDS011;9896;42.486;26.506;2024-01-06T12:47:22;11.13;;;7.33;;
19509;SDS011;9896;42.486;26.506;2024-01-06T12:49:49;10.93;;;5.93;;
19509;SDS011;9896;42.486;26.506;2024-01-06T12:52:14;14.53;;;5.00;;
19509;SDS011;9896;42.486;26.506;2024-01-06T12:54:40;12.10;;;4.90;;
19509;SDS011;9896;42.486;26.506;2024-01-06T12:57:07;10.77;;;7.60;;
19509;SDS011;9896;42.486;26.506;2024-01-06T12:59:33;6.80;;;3.93;;
19509;SDS011;9896;42.486;26.506;2024-01-06T13:02:01;14.77;;;8.10;;
19509;SDS011;9896;42.486;26.506;2024-01-06T13:04:27;11.77;;;6.20;;
19509;SDS011;9896;42.486;26.506;2024-01-06T13:06:53;8.70;;;5.43;;
19509;SDS011;9896;42.486;26.506;2024-01-06T13:09:18;13.07;;;7.90;;
19509;SDS011;9896;42.486;26.506;2024-01-06T13:11:44;10.33;;;5.43;;
19509;SDS011;9896;42.486;26.506;2024-01-06T13:14:12;13.53;;;5.30;;
19509;SDS011;9896;42.486;26.506;2024-01-06T13:16:38;10.10;;;4.67;;
19509;SDS011;9896;42.486;26.506;2024-01-06T13:19:03;8.30;;;6.00;;
19509;SDS011;9896;42.486;26.506;2024-01-06T13:21:29;9.43;;;4.50;;
19509;SDS011;9896;42.486;26.506;2024-01-06T13:23:58;11.33;;;5.83;;
19509;SDS011;9896;42.486;26.506;2024-01-06T13:26:26;17.17;;;6.77;;
19509;SDS011;9896;42.486;26.506;2024-01-06T13:28:53;5.70;;;3.53;;
19509;SDS011;9896;42.486;26.506;2024-01-06T13:31:19;10.60;;;6.17;;
19509;SDS011;9896;42.486;26.506;2024-01-06T13:33:45;12.23;;;5.83;;
19509;SDS011;9896;42.486;26.506;2024-01-06T13:36:11;7.17;;;4.90;;
19509;SDS011;9896;42.486;26.506;2024-01-06T13:38:37;12.13;;;6.13;;
19509;SDS011;9896;42.486;26.506;2024-01-06T13:41:03;10.07;;;5.23;;
19509;SDS011;9896;42.486;26.506;2024-01-06T13:43:29;10.33;;;5.33;;
19509;SDS011;9896;42.486;26.506;2024-01-06T13:45:54;12.90;;;6.37;;
19509;SDS011;9896;42.486;26.506;2024-01-06T13:48:21;4.07;;;3.20;;
19509;SDS011;9896;42.486;26.506;2024-01-06T13:50:46;9.20;;;5.70;;
19509;SDS011;9896;42.486;26.506;2024-01-06T13:53:13;10.23;;;4.10;;
19509;SDS011;9896;42.486;26.506;2024-01-06T13:55:39;13.20;;;3.93;;
19509;SDS011;9896;42.486;26.506;2024-01-06T13:58:04;4.70;;;2.93;;
19509;SDS011;9896;42.486;26.506;2024-01-06T14:00:30;4.40;;;3.23;;
19509;SDS011;9896;42.486;26.506;2024-01-06T14:02:56;8.43;;;6.00;;
19509;SDS011;9896;42.486;26.506;2024-01-06T14:05:22;12.47;;;5.90;;
19509;SDS011;9896;42.486;26.506;2024-01-06T14:07:48;17.00;;;5.43;;
19509;SDS011;9896;42.486;26.506;2024-01-06T14:10:16;13.47;;;6.40;;
19509;SDS011;9896;42.486;26.506;2024-01-06T14:12:42;4.97;;;3.10;;
19509;SDS011;9896;42.486;26.506;2024-01-06T14:15:07;14.47;;;6.93;;
19509;SDS011;9896;42.486;26.506;2024-01-06T14:17:34;11.00;;;6.33;;
19509;SDS011;9896;42.486;26.506;2024-01-06T14:20:00;5.63;;;3.93;;
19509;SDS011;9896;42.486;26.506;2024-01-06T14:22:27;9.50;;;6.00;;
19509;SDS011;9896;42.486;26.506;2024-01-06T14:24:52;15.57;;;6.17;;
19509;SDS011;9896;42.486;26.506;2024-01-06T14:27:18;10.90;;;5.03;;
19509;SDS011;9896;42.486;26.506;2024-01-06T14:29:44;17.27;;;6.73;;
19509;SDS011;9896;42.486;26.506;2024-01-06T14:32:10;18.87;;;6.03;;
19509;SDS011;9896;42.486;26.506;2024-01-06T14:34:35;10.83;;;5.60;;
19509;SDS011;9896;42.486;26.506;2024-01-06T14:37:01;16.33;;;5.03;;
19509;SDS011;9896;42.486;26.506;2024-01-06T14:39:27;7.07;;;3.10;;
19509;SDS011;9896;42.486;26.506;2024-01-06T14:41:52;10.30;;;4.50;;
19509;SDS011;9896;42.486;26.506;2024-01-06T14:44:18;7.27;;;3.77;;